Time;durP1;ratioP1;P1;durP2;ratioP2;P2;SDS_P1;SDS_P2;PMS_P1;PMS_P2;Temp;Humidity;BMP_temperature;BMP_pressure;BME280_temperature;BME280_humidity;BME280_pressure;Samples;Min_cycle;Max_cycle;Signal;HPM_P1;HPM_P2
2023/02/08 00:01:14;;;;;;;4.80;3.30;;;-5.00;97.30;;;;;;5012907;28;20442;-86
2023/02/08 00:03:39;;;;;;;5.60;5.30;;;-5.00;97.30;;;;;;5013014;28;20570;-86
2023/02/08 00:06:07;;;;;;;12.00;5.13;;;-5.10;97.30;;;;;;5013166;28;20537;-86
2023/02/08 00:08:32;;;;;;;8.13;4.90;;;-5.10;97.30;;;;;;5030241;28;20176;-86
2023/02/08 00:10:58;;;;;;;12.03;3.93;;;-5.10;97.30;;;;;;5030688;28;20545;-86
2023/02/08 00:13:23;;;;;;;3.60;3.27;;;-5.30;97.30;;;;;;5012427;28;20656;-86
2023/02/08 00:15:52;;;;;;;6.23;4.13;;;-5.30;97.30;;;;;;5012916;28;20603;-86
2023/02/08 00:18:18;;;;;;;11.63;7.03;;;-5.30;97.30;;;;;;5012436;28;20544;-87
2023/02/08 00:20:43;;;;;;;7.80;5.00;;;-5.30;97.30;;;;;;5012654;28;20433;-88
2023/02/08 00:23:09;;;;;;;9.13;5.20;;;-5.30;97.30;;;;;;5012543;28;20501;-87
2023/02/08 00:25:36;;;;;;;4.03;3.70;;;-5.20;97.30;;;;;;5029997;28;20208;-86
2023/02/08 00:28:02;;;;;;;6.33;2.80;;;-5.20;97.30;;;;;;5012547;28;20430;-87
2023/02/08 00:30:27;;;;;;;8.43;2.43;;;-5.20;97.30;;;;;;5012809;28;20432;-86
2023/02/08 00:32:53;;;;;;;4.27;4.00;;;-5.20;97.30;;;;;;5012389;28;20557;-87
2023/02/08 00:35:18;;;;;;;6.60;2.97;;;-5.20;97.30;;;;;;5012911;28;20210;-87
2023/02/08 00:37:43;;;;;;;4.60;4.30;;;-5.30;97.30;;;;;;5012696;28;20662;-87
2023/02/08 00:40:10;;;;;;;5.03;4.40;;;-5.30;97.30;;;;;;5012913;28;20172;-87
2023/02/08 00:42:35;;;;;;;9.70;6.40;;;-5.30;97.30;;;;;;5012720;28;20187;-87
2023/02/08 00:45:01;;;;;;;7.63;5.30;;;-5.40;97.30;;;;;;5012637;28;20874;-87
2023/02/08 00:47:26;;;;;;;5.40;3.83;;;-5.50;97.30;;;;;;5011886;28;20203;-87
2023/02/08 00:49:52;;;;;;;3.07;2.93;;;-5.50;97.30;;;;;;5012683;28;20458;-87
2023/02/08 00:52:18;;;;;;;2.63;2.43;;;-5.60;97.30;;;;;;5012382;28;20200;-87
2023/02/08 00:54:43;;;;;;;12.27;6.10;;;-5.70;97.30;;;;;;5012197;28;20234;-87
2023/02/08 00:57:09;;;;;;;6.13;3.70;;;-5.60;97.30;;;;;;5017897;28;20430;-87
2023/02/08 00:59:34;;;;;;;5.97;5.60;;;-5.50;97.30;;;;;;5033177;28;20177;-89
2023/02/08 01:02:00;;;;;;;5.43;5.13;;;-5.50;97.30;;;;;;5034276;28;20184;-89
2023/02/08 01:04:25;;;;;;;11.47;4.37;;;-5.50;97.30;;;;;;5034591;28;20195;-87
2023/02/08 01:06:51;;;;;;;6.60;4.27;;;-5.40;97.30;;;;;;5035623;28;20296;-87
2023/02/08 01:09:16;;;;;;;14.23;4.80;;;-5.40;97.30;;;;;;5035282;28;20250;-88
2023/02/08 01:11:42;;;;;;;17.77;7.80;;;-5.40;97.30;;;;;;5016499;28;20689;-86
2023/02/08 01:14:08;;;;;;;10.33;5.50;;;-5.40;97.30;;;;;;5013166;28;20572;-87
2023/02/08 01:16:33;;;;;;;6.47;6.10;;;-5.40;97.30;;;;;;5012744;28;20266;-87
2023/02/08 01:19:01;;;;;;;3.50;3.37;;;-5.50;97.30;;;;;;5012411;28;20704;-87
2023/02/08 01:21:30;;;;;;;13.23;7.10;;;-5.50;97.30;;;;;;5012570;28;20434;-87
2023/02/08 01:23:56;;;;;;;7.93;4.63;;;-5.50;97.30;;;;;;5012064;28;20454;-87
2023/02/08 01:26:22;;;;;;;5.07;3.47;;;-5.50;97.30;;;;;;5011985;28;20491;-87
2023/02/08 01:28:48;;;;;;;4.70;4.40;;;-5.50;97.30;;;;;;5012451;28;20670;-87
2023/02/08 01:31:20;;;;;;;11.20;8.53;;;-5.50;97.30;;;;;;5033485;28;20494;-86
2023/02/08 01:33:46;;;;;;;7.80;3.40;;;-5.60;97.30;;;;;;5015902;28;21306;-87
2023/02/08 01:36:13;;;;;;;8.13;4.90;;;-5.60;97.30;;;;;;5033548;28;20494;-87
2023/02/08 01:38:38;;;;;;;13.50;6.43;;;-5.70;97.30;;;;;;5015805;28;20431;-87
2023/02/08 01:41:06;;;;;;;7.03;5.87;;;-5.80;97.30;;;;;;5015598;28;20536;-87
2023/02/08 01:43:53;;;;;;;6.23;4.07;;;-5.80;97.30;;;;;;5015789;28;20190;-87
2023/02/08 01:46:19;;;;;;;7.20;6.37;;;-5.80;97.30;;;;;;5015643;28;20453;-87
2023/02/08 01:48:44;;;;;;;9.20;5.27;;;-5.80;97.30;;;;;;5015440;28;20418;-86
2023/02/08 01:51:15;;;;;;;4.50;2.73;;;-5.80;97.30;;;;;;5033077;28;20230;-88
2023/02/08 01:53:41;;;;;;;6.73;6.37;;;-5.80;97.30;;;;;;5015435;28;20180;-87
2023/02/08 01:56:14;;;;;;;9.60;6.07;;;-5.80;97.30;;;;;;5014494;28;20443;-87
2023/02/08 01:58:47;;;;;;;20.87;5.43;;;-5.80;97.30;;;;;;5014753;28;20428;-88
2023/02/08 02:01:13;;;;;;;6.97;6.57;;;-5.80;97.30;;;;;;5015098;28;20431;-88
2023/02/08 02:03:39;;;;;;;7.40;4.23;;;-5.80;97.30;;;;;;5015316;28;20479;-88
2023/02/08 02:06:15;;;;;;;5.13;4.83;;;-5.90;97.30;;;;;;5013995;28;20454;-87
2023/02/08 02:08:48;;;;;;;6.10;3.17;;;-5.90;97.30;;;;;;5015198;28;20298;-87
2023/02/08 02:11:14;;;;;;;9.53;4.97;;;-5.80;97.30;;;;;;5013578;28;20551;-87
2023/02/08 02:13:40;;;;;;;12.53;5.60;;;-5.80;97.30;;;;;;5013394;28;20784;-87
2023/02/08 02:16:05;;;;;;;14.90;7.10;;;-5.80;97.30;;;;;;5015151;28;20431;-88
2023/02/08 02:18:32;;;;;;;6.00;5.70;;;-5.80;97.30;;;;;;5024280;28;20418;-87
2023/02/08 02:21:08;;;;;;;12.20;6.97;;;-5.80;97.30;;;;;;5014784;28;20231;-87
2023/02/08 02:24:10;;;;;;;7.70;5.87;;;-5.80;97.30;;;;;;5032263;28;20421;-87
2023/02/08 02:27:03;;;;;;;4.10;3.87;;;-5.80;97.30;;;;;;5015552;28;20533;-87
2023/02/08 02:30:01;;;;;;;14.73;5.03;;;-5.80;97.30;;;;;;5015005;28;20460;-87
2023/02/08 02:32:52;;;;;;;6.57;6.20;;;-5.80;97.30;;;;;;5029060;28;20516;-87
2023/02/08 02:35:39;;;;;;;9.03;8.53;;;-5.90;97.30;;;;;;5010008;28;21118;-87
2023/02/08 02:38:26;;;;;;;5.90;5.60;;;-5.90;97.30;;;;;;5024919;28;20514;-86
2023/02/08 02:41:05;;;;;;;4.90;4.60;;;-5.90;97.30;;;;;;5047399;28;20414;-87
2023/02/08 02:43:54;;;;;;;7.53;7.13;;;-6.00;97.30;;;;;;5016215;28;20955;-86
2023/02/08 02:46:26;;;;;;;21.73;4.63;;;-5.90;97.30;;;;;;5024479;28;20454;-88
2023/02/08 02:49:01;;;;;;;3.30;3.10;;;-5.90;97.30;;;;;;5039727;28;20670;-88
2023/02/08 02:51:41;;;;;;;4.93;3.30;;;-5.90;97.30;;;;;;5015843;28;20465;-87
2023/02/08 02:54:27;;;;;;;6.53;5.90;;;-5.90;97.30;;;;;;5007811;28;20466;-87
2023/02/08 02:56:58;;;;;;;7.33;3.93;;;-5.90;97.30;;;;;;5012651;28;20443;-86
2023/02/08 02:59:25;;;;;;;4.60;4.13;;;-5.90;97.30;;;;;;5013766;28;20429;-87
2023/02/08 03:01:54;;;;;;;3.60;3.40;;;-5.90;97.30;;;;;;5013988;28;20939;-87
2023/02/08 03:04:32;;;;;;;7.13;4.30;;;-5.90;97.30;;;;;;5013957;28;20485;-87
2023/02/08 03:07:17;;;;;;;8.77;5.70;;;-5.90;97.30;;;;;;4997759;28;20445;-88
2023/02/08 03:09:59;;;;;;;9.10;6.60;;;-5.90;97.30;;;;;;5013505;28;20434;-86
2023/02/08 03:12:32;;;;;;;7.37;5.70;;;-5.90;97.30;;;;;;5005443;28;20974;-87
2023/02/08 03:15:07;;;;;;;5.07;4.77;;;-5.90;97.30;;;;;;5022117;28;20443;-87
2023/02/08 03:17:45;;;;;;;24.50;7.00;;;-5.90;97.30;;;;;;5013697;28;20411;-87
2023/02/08 03:20:17;;;;;;;5.77;5.47;;;-5.90;97.30;;;;;;5013612;28;20414;-88
2023/02/08 03:23:01;;;;;;;4.73;4.50;;;-5.90;97.30;;;;;;5013581;28;20816;-87
2023/02/08 03:25:35;;;;;;;4.87;3.10;;;-5.90;97.30;;;;;;5030363;28;20963;-87
2023/02/08 03:28:10;;;;;;;9.07;3.73;;;-5.90;97.30;;;;;;5005917;28;20425;-87
2023/02/08 03:30:49;;;;;;;2.97;2.77;;;-5.90;97.30;;;;;;5013392;28;20430;-87
2023/02/08 03:33:21;;;;;;;3.80;3.60;;;-6.00;97.30;;;;;;5013777;28;20549;-84
2023/02/08 03:36:01;;;;;;;12.63;10.67;;;-6.00;97.30;;;;;;5013250;28;20454;-87
2023/02/08 03:38:38;;;;;;;7.27;5.60;;;-6.10;97.30;;;;;;5006485;28;20454;-87
2023/02/08 03:41:06;;;;;;;7.23;4.27;;;-6.20;97.30;;;;;;5006197;28;20425;-87
2023/02/08 03:43:36;;;;;;;12.30;6.70;;;-6.20;97.30;;;;;;5013612;28;20422;-87
2023/02/08 03:46:11;;;;;;;8.47;5.70;;;-6.20;97.30;;;;;;5004932;28;20454;-88
2023/02/08 03:48:40;;;;;;;2.00;1.90;;;-6.30;97.30;;;;;;5013654;28;20513;-87
2023/02/08 03:51:07;;;;;;;6.63;6.23;;;-6.40;97.30;;;;;;5030546;28;20816;-87
2023/02/08 03:53:38;;;;;;;6.93;4.63;;;-6.40;97.30;;;;;;5012628;28;20502;-85
2023/02/08 03:56:09;;;;;;;33.97;6.67;;;-6.50;97.30;;;;;;5030951;28;20438;-86
2023/02/08 03:58:44;;;;;;;9.93;3.60;;;-6.50;97.30;;;;;;5013442;28;20415;-87
2023/02/08 04:01:21;;;;;;;7.10;6.37;;;-6.50;97.30;;;;;;5012400;28;20455;-87
2023/02/08 04:03:52;;;;;;;8.67;8.17;;;-6.60;97.30;;;;;;5012012;28;20427;-87
2023/02/08 04:06:18;;;;;;;4.63;3.10;;;-6.60;97.30;;;;;;5013290;28;20446;-87
2023/02/08 04:08:43;;;;;;;7.33;3.90;;;-6.60;97.30;;;;;;5012516;28;20423;-87
2023/02/08 04:11:09;;;;;;;8.70;4.63;;;-6.60;97.30;;;;;;5012493;28;20191;-87
2023/02/08 04:13:34;;;;;;;5.73;5.07;;;-6.60;97.30;;;;;;5012911;28;20812;-87
2023/02/08 04:16:00;;;;;;;4.50;3.07;;;-6.60;97.30;;;;;;5012512;28;20208;-87
2023/02/08 04:18:25;;;;;;;7.53;3.33;;;-6.60;97.30;;;;;;5013395;28;20187;-87
2023/02/08 04:20:51;;;;;;;10.87;8.07;;;-6.60;97.30;;;;;;5013048;28;20238;-87
2023/02/08 04:23:17;;;;;;;5.07;4.60;;;-6.60;97.30;;;;;;5013265;28;20273;-85
2023/02/08 04:25:42;;;;;;;3.67;3.17;;;-6.60;97.30;;;;;;5013025;28;20465;-87
2023/02/08 04:28:08;;;;;;;12.23;5.97;;;-6.60;97.30;;;;;;5013718;28;20564;-87
2023/02/08 04:30:33;;;;;;;15.17;6.67;;;-6.60;97.30;;;;;;5012993;28;20187;-86
2023/02/08 04:32:59;;;;;;;11.10;4.63;;;-6.60;97.30;;;;;;5012283;28;20214;-87
2023/02/08 04:35:24;;;;;;;9.47;4.10;;;-6.60;97.30;;;;;;5012347;28;20218;-86
2023/02/08 04:37:50;;;;;;;6.63;5.43;;;-6.60;97.30;;;;;;5012857;28;20598;-87
2023/02/08 04:40:16;;;;;;;5.47;5.17;;;-6.60;97.30;;;;;;5009053;28;20610;-86
2023/02/08 04:42:41;;;;;;;3.50;2.97;;;-6.60;97.30;;;;;;5012817;28;20187;-86
2023/02/08 04:45:07;;;;;;;4.03;3.83;;;-6.60;97.30;;;;;;5013233;28;20682;-86
2023/02/08 04:47:33;;;;;;;5.63;4.03;;;-6.60;97.30;;;;;;5012317;28;20191;-86
2023/02/08 04:49:58;;;;;;;10.77;8.10;;;-6.60;97.30;;;;;;5010117;28;20789;-87
2023/02/08 04:52:24;;;;;;;3.40;3.20;;;-6.70;97.30;;;;;;5008857;28;20198;-87
2023/02/08 04:54:50;;;;;;;5.37;3.93;;;-6.70;97.30;;;;;;5004490;28;20234;-87
2023/02/08 04:57:15;;;;;;;9.03;7.57;;;-6.80;97.30;;;;;;5006795;28;20179;-87
2023/02/08 04:59:41;;;;;;;5.77;5.47;;;-6.80;97.30;;;;;;5004835;28;20443;-88
2023/02/08 05:02:07;;;;;;;4.83;3.60;;;-6.80;97.30;;;;;;5004371;28;20190;-88
2023/02/08 05:04:33;;;;;;;7.40;3.83;;;-6.90;97.30;;;;;;5010666;28;20185;-87
2023/02/08 05:06:58;;;;;;;7.63;4.27;;;-6.90;97.30;;;;;;5010378;28;20237;-88
2023/02/08 05:09:24;;;;;;;5.83;5.07;;;-7.00;97.30;;;;;;5012623;28;21866;-87
2023/02/08 05:11:50;;;;;;;9.93;2.73;;;-7.00;97.30;;;;;;5008841;28;20209;-87
2023/02/08 05:14:15;;;;;;;6.33;3.40;;;-7.00;97.30;;;;;;5009375;28;20176;-88
2023/02/08 05:16:41;;;;;;;10.13;5.90;;;-7.00;97.30;;;;;;5011251;28;20226;-87
2023/02/08 05:19:06;;;;;;;6.27;5.93;;;-7.10;97.30;;;;;;5007981;28;20183;-87
2023/02/08 05:21:32;;;;;;;8.23;5.87;;;-7.10;97.30;;;;;;5004248;28;20182;-87
2023/02/08 05:23:57;;;;;;;12.83;5.03;;;-7.10;97.30;;;;;;5005897;28;20239;-87
2023/02/08 05:26:23;;;;;;;14.80;7.43;;;-7.00;97.30;;;;;;5003140;28;20280;-87
2023/02/08 05:28:48;;;;;;;6.57;6.17;;;-7.00;97.30;;;;;;5006863;28;20186;-87
2023/02/08 05:31:18;;;;;;;3.70;3.50;;;-7.00;97.30;;;;;;5014751;28;20179;-87
2023/02/08 05:33:44;;;;;;;3.60;3.40;;;-7.00;97.30;;;;;;5014459;28;20328;-87
2023/02/08 05:36:09;;;;;;;6.53;3.93;;;-7.00;97.30;;;;;;5004853;28;20971;-88
2023/02/08 05:38:35;;;;;;;6.03;4.87;;;-7.00;97.30;;;;;;5017064;28;20185;-87
2023/02/08 05:41:00;;;;;;;13.57;6.00;;;-7.10;97.30;;;;;;5017469;28;20188;-84
2023/02/08 05:43:26;;;;;;;6.13;4.90;;;-7.10;97.30;;;;;;5036689;28;20184;-87
2023/02/08 05:45:51;;;;;;;2.90;2.70;;;-7.10;97.30;;;;;;5018562;28;20200;-84
2023/02/08 05:48:17;;;;;;;7.93;3.53;;;-7.20;97.30;;;;;;5009314;28;20177;-86
2023/02/08 05:50:43;;;;;;;7.47;5.10;;;-7.20;97.30;;;;;;5011793;28;20650;-87
2023/02/08 05:53:09;;;;;;;6.47;5.53;;;-7.20;97.30;;;;;;5014248;28;20559;-87
2023/02/08 05:55:34;;;;;;;2.93;2.73;;;-7.20;97.30;;;;;;5016745;28;20235;-85
2023/02/08 05:58:00;;;;;;;2.20;2.00;;;-7.20;97.30;;;;;;5017653;28;20450;-86
2023/02/08 06:00:25;;;;;;;8.47;4.73;;;-7.20;97.30;;;;;;5015170;28;20393;-87
2023/02/08 06:02:51;;;;;;;5.23;3.53;;;-7.20;97.30;;;;;;5017907;28;20183;-87
2023/02/08 06:05:16;;;;;;;4.00;3.80;;;-7.30;97.30;;;;;;5017326;28;20210;-87
2023/02/08 06:07:42;;;;;;;10.43;6.47;;;-7.30;97.30;;;;;;5017063;28;20354;-86
2023/02/08 06:10:08;;;;;;;10.33;4.63;;;-7.40;97.30;;;;;;5016364;28;20182;-86
2023/02/08 06:12:33;;;;;;;25.33;5.13;;;-7.40;97.30;;;;;;5013861;28;20203;-88
2023/02/08 06:14:58;;;;;;;14.13;6.77;;;-7.40;97.30;;;;;;5013199;28;20254;-87
2023/02/08 06:17:24;;;;;;;6.57;4.23;;;-7.50;97.30;;;;;;5031837;28;20273;-88
2023/02/08 06:19:49;;;;;;;14.30;6.37;;;-7.50;97.30;;;;;;5014499;28;20201;-87
2023/02/08 06:22:15;;;;;;;2.47;2.27;;;-7.60;97.30;;;;;;5013933;28;20593;-87
2023/02/08 06:24:41;;;;;;;5.70;3.50;;;-7.60;97.30;;;;;;5012915;28;20190;-86
2023/02/08 06:27:06;;;;;;;6.00;3.83;;;-7.50;97.30;;;;;;5015445;28;20274;-87
2023/02/08 06:29:31;;;;;;;5.03;4.40;;;-7.50;97.30;;;;;;5011464;28;20195;-88
2023/02/08 06:31:57;;;;;;;12.00;6.60;;;-7.50;97.30;;;;;;5015418;28;20234;-88
2023/02/08 06:34:22;;;;;;;4.37;4.07;;;-7.50;97.30;;;;;;5033002;28;20186;-88
2023/02/08 06:36:48;;;;;;;14.13;3.33;;;-7.50;97.30;;;;;;5007130;28;20255;-88
2023/02/08 06:39:13;;;;;;;5.00;4.13;;;-7.50;97.30;;;;;;5015517;28;20176;-87
2023/02/08 06:41:39;;;;;;;13.83;5.73;;;-7.40;97.30;;;;;;5015704;28;20278;-88
2023/02/08 06:44:05;;;;;;;7.70;2.83;;;-7.40;97.30;;;;;;5014451;28;20649;-87
2023/02/08 06:46:30;;;;;;;3.60;3.40;;;-7.40;97.30;;;;;;5013578;28;20203;-87
2023/02/08 06:48:57;;;;;;;4.07;3.83;;;-7.40;97.30;;;;;;5022769;28;20215;-87
2023/02/08 06:51:23;;;;;;;11.20;5.03;;;-7.40;97.30;;;;;;5016198;28;20227;-86
2023/02/08 06:53:49;;;;;;;2.57;2.37;;;-7.40;97.30;;;;;;5016549;28;21102;-85
2023/02/08 06:56:14;;;;;;;2.90;2.70;;;-7.40;97.30;;;;;;5014452;28;20198;-85
2023/02/08 06:58:40;;;;;;;12.93;5.00;;;-7.40;97.30;;;;;;5013047;28;20179;-87
2023/02/08 07:01:05;;;;;;;4.33;3.20;;;-7.40;97.30;;;;;;5014681;28;20172;-87
2023/02/08 07:03:31;;;;;;;3.33;3.13;;;-7.40;97.30;;;;;;5014717;28;20178;-87
2023/02/08 07:05:56;;;;;;;5.60;3.87;;;-7.40;97.30;;;;;;5032476;28;20720;-86
2023/02/08 07:08:22;;;;;;;9.13;8.30;;;-7.40;97.30;;;;;;5014561;28;20321;-86
2023/02/08 07:10:48;;;;;;;3.97;3.77;;;-7.40;97.30;;;;;;5014926;28;20174;-87
2023/02/08 07:13:13;;;;;;;8.30;5.03;;;-7.50;97.30;;;;;;5015110;28;20291;-84
2023/02/08 07:15:39;;;;;;;3.27;2.63;;;-7.40;97.30;;;;;;5014785;28;20533;-87
2023/02/08 07:18:04;;;;;;;6.67;6.27;;;-7.40;97.30;;;;;;5015171;28;20180;-85
2023/02/08 07:20:30;;;;;;;6.23;4.83;;;-7.30;97.30;;;;;;5032809;28;20262;-86
2023/02/08 07:22:55;;;;;;;6.03;4.30;;;-7.30;97.30;;;;;;5007095;28;20294;-86
2023/02/08 07:25:21;;;;;;;10.67;3.90;;;-7.30;97.30;;;;;;5014848;28;20222;-87
2023/02/08 07:27:46;;;;;;;7.50;6.40;;;-7.20;97.30;;;;;;5034328;28;20212;-88
2023/02/08 07:30:12;;;;;;;3.87;2.50;;;-7.10;97.30;;;;;;5038504;28;20191;-87
2023/02/08 07:32:37;;;;;;;9.83;4.13;;;-7.10;97.30;;;;;;5039105;28;20220;-88
2023/02/08 07:35:03;;;;;;;4.87;4.60;;;-7.00;97.30;;;;;;5034071;28;20453;-89
2023/02/08 07:37:29;;;;;;;20.03;4.97;;;-6.90;97.30;;;;;;5038081;28;20184;-87
2023/02/08 07:39:55;;;;;;;10.03;4.30;;;-6.90;97.30;;;;;;5016006;28;20233;-87
2023/02/08 07:42:20;;;;;;;13.43;6.93;;;-6.80;97.30;;;;;;5014945;28;20335;-87
2023/02/08 07:44:46;;;;;;;13.90;7.03;;;-6.70;97.30;;;;;;5032326;28;20422;-87
2023/02/08 07:47:11;;;;;;;6.43;3.37;;;-6.70;97.30;;;;;;5013944;28;20278;-87
2023/02/08 07:49:37;;;;;;;9.63;3.60;;;-6.60;97.30;;;;;;5013388;28;20178;-87
2023/02/08 07:52:02;;;;;;;4.00;3.33;;;-6.60;97.30;;;;;;5031466;28;20210;-87
2023/02/08 07:54:28;;;;;;;4.60;4.30;;;-6.60;97.30;;;;;;5012725;28;20321;-87
2023/02/08 07:56:54;;;;;;;6.70;5.50;;;-6.50;97.30;;;;;;5022042;28;20566;-87
2023/02/08 07:59:19;;;;;;;8.07;3.30;;;-6.40;97.30;;;;;;5013333;28;20210;-87
2023/02/08 08:01:45;;;;;;;4.20;3.80;;;-6.30;97.30;;;;;;5012871;28;20529;-86
2023/02/08 08:04:11;;;;;;;6.83;6.43;;;-6.30;97.30;;;;;;5013343;28;20184;-87
2023/02/08 08:06:37;;;;;;;8.87;4.67;;;-6.20;97.30;;;;;;5013203;28;20199;-87
2023/02/08 08:09:02;;;;;;;5.10;4.30;;;-6.10;97.30;;;;;;5013210;28;20475;-87
2023/02/08 08:11:28;;;;;;;6.70;4.93;;;-6.00;97.30;;;;;;5012840;28;20201;-87
2023/02/08 08:13:53;;;;;;;5.60;4.03;;;-5.90;97.30;;;;;;5013210;28;20184;-87
2023/02/08 08:16:19;;;;;;;17.43;7.27;;;-5.90;97.30;;;;;;5014480;28;20241;-87
2023/02/08 08:18:45;;;;;;;11.87;6.50;;;-5.80;97.30;;;;;;5014082;28;20646;-88
2023/02/08 08:21:11;;;;;;;5.27;4.40;;;-5.70;97.30;;;;;;5019310;28;20947;-87
2023/02/08 08:23:37;;;;;;;2.23;2.03;;;-5.60;97.30;;;;;;5009184;28;20509;-87
2023/02/08 08:26:12;;;;;;;6.43;5.50;;;-5.50;97.30;;;;;;5031275;28;20435;-87
2023/02/08 08:28:39;;;;;;;4.53;4.23;;;-5.40;97.30;;;;;;5013825;28;20554;-87
2023/02/08 08:31:12;;;;;;;5.67;5.37;;;-5.30;97.30;;;;;;5013649;28;20425;-88
2023/02/08 08:33:38;;;;;;;4.07;3.83;;;-5.20;97.30;;;;;;5013911;28;20462;-88
2023/02/08 08:36:04;;;;;;;17.73;3.83;;;-5.10;97.30;;;;;;5012783;28;21007;-88
2023/02/08 08:38:29;;;;;;;3.27;3.07;;;-5.00;97.30;;;;;;5000940;28;20181;-88
2023/02/08 08:40:55;;;;;;;6.40;6.07;;;-5.00;97.30;;;;;;5035330;28;20198;-87
2023/02/08 08:43:20;;;;;;;10.10;7.40;;;-4.90;97.30;;;;;;5020287;28;20203;-87
2023/02/08 08:45:46;;;;;;;8.57;5.50;;;-4.90;97.30;;;;;;5020220;28;20701;-86
2023/02/08 08:48:12;;;;;;;5.63;4.87;;;-4.70;97.30;;;;;;5020116;28;20192;-87
2023/02/08 08:50:38;;;;;;;7.43;7.03;;;-4.70;97.30;;;;;;5024993;28;20446;-87
2023/02/08 08:53:03;;;;;;;11.30;7.07;;;-4.60;97.30;;;;;;5019716;28;20240;-87
2023/02/08 08:55:29;;;;;;;5.40;4.53;;;-4.50;97.30;;;;;;5019792;28;20977;-87
2023/02/08 08:57:54;;;;;;;9.80;7.10;;;-4.40;97.30;;;;;;5021307;28;20237;-87
2023/02/08 09:00:20;;;;;;;3.83;3.63;;;-4.30;97.30;;;;;;5022182;28;20236;-88
2023/02/08 09:02:46;;;;;;;4.00;3.77;;;-4.20;97.30;;;;;;5026758;28;20268;-89
2023/02/08 09:05:11;;;;;;;11.10;7.30;;;-4.20;97.30;;;;;;5039101;28;20446;-88
2023/02/08 09:07:37;;;;;;;6.67;4.30;;;-4.10;97.30;;;;;;5023166;28;20193;-87
2023/02/08 09:10:03;;;;;;;4.37;4.13;;;-4.00;97.30;;;;;;5014959;28;20188;-88
2023/02/08 09:12:28;;;;;;;9.87;5.00;;;-3.90;97.30;;;;;;5013674;28;20211;-87
2023/02/08 09:14:54;;;;;;;4.53;3.40;;;-3.90;97.30;;;;;;5014153;28;20236;-87
2023/02/08 09:17:19;;;;;;;8.17;5.23;;;-3.90;97.30;;;;;;5017787;28;20191;-87
2023/02/08 09:19:46;;;;;;;8.40;4.83;;;-3.80;97.30;;;;;;5015321;28;20188;-87
2023/02/08 09:22:12;;;;;;;6.30;4.50;;;-3.70;97.30;;;;;;5014977;28;20291;-87
2023/02/08 09:24:37;;;;;;;3.03;2.83;;;-3.60;97.30;;;;;;5028395;28;20431;-88
2023/02/08 09:27:03;;;;;;;7.40;3.93;;;-3.60;97.30;;;;;;5017694;28;20446;-88
2023/02/08 09:29:29;;;;;;;17.93;7.00;;;-3.50;97.30;;;;;;5015216;28;20561;-88
2023/02/08 09:31:54;;;;;;;3.27;3.03;;;-3.50;97.30;;;;;;5017067;28;20582;-87
2023/02/08 09:34:20;;;;;;;6.77;4.37;;;-3.50;97.30;;;;;;5019171;28;20644;-88
2023/02/08 09:36:46;;;;;;;5.00;3.67;;;-3.40;97.30;;;;;;5021229;28;20770;-88
2023/02/08 09:39:18;;;;;;;12.60;5.40;;;-3.30;97.30;;;;;;5018115;28;20580;-88
2023/02/08 09:42:06;;;;;;;2.43;2.23;;;-3.30;97.30;;;;;;5019554;28;20180;-87
2023/02/08 09:44:41;;;;;;;2.53;2.33;;;-3.20;97.30;;;;;;5029786;28;20427;-87
2023/02/08 09:47:33;;;;;;;6.27;4.97;;;-3.10;97.30;;;;;;5019024;28;20489;-87
2023/02/08 09:50:25;;;;;;;5.23;4.73;;;-3.00;97.30;;;;;;5033805;28;20419;-87
2023/02/08 09:52:59;;;;;;;9.10;7.17;;;-3.00;97.30;;;;;;5033628;28;21115;-86
2023/02/08 09:55:40;;;;;;;11.30;7.00;;;-2.90;97.30;;;;;;5013388;28;20467;-87
2023/02/08 09:58:18;;;;;;;9.90;5.47;;;-2.80;97.30;;;;;;5007286;28;20514;-87
2023/02/08 10:00:46;;;;;;;12.33;4.53;;;-2.70;97.30;;;;;;5017331;28;20768;-86
2023/02/08 10:03:41;;;;;;;5.23;4.93;;;-2.60;97.30;;;;;;5017809;28;20422;-86
2023/02/08 10:06:11;;;;;;;7.33;5.93;;;-2.50;97.30;;;;;;5017724;28;21018;-86
2023/02/08 10:08:38;;;;;;;6.97;6.00;;;-2.50;97.30;;;;;;5017644;28;20430;-86
2023/02/08 10:11:34;;;;;;;9.50;3.33;;;-2.50;97.30;;;;;;5017362;28;20435;-86
2023/02/08 10:14:17;;;;;;;4.17;3.93;;;-2.50;97.30;;;;;;5017110;28;20423;-87
2023/02/08 10:17:13;;;;;;;8.63;7.43;;;-2.40;97.30;;;;;;5015631;28;20455;-86
2023/02/08 10:20:11;;;;;;;6.57;5.13;;;-2.30;97.30;;;;;;5025858;28;20431;-86
2023/02/08 10:22:51;;;;;;;9.67;4.40;;;-2.20;97.30;;;;;;5014123;28;20438;-86
2023/02/08 10:25:39;;;;;;;12.17;4.83;;;-2.20;97.30;;;;;;5015864;28;20431;-86
2023/02/08 10:28:39;;;;;;;3.70;3.50;;;-2.10;97.30;;;;;;5018307;28;20510;-86
2023/02/08 10:31:39;;;;;;;9.90;4.77;;;-1.90;97.30;;;;;;5005623;28;20454;-85
2023/02/08 10:34:29;;;;;;;4.40;4.07;;;-1.80;97.30;;;;;;5014364;28;20427;-86
2023/02/08 10:36:55;;;;;;;12.30;5.37;;;-1.70;97.30;;;;;;5012108;28;20838;-85
2023/02/08 10:39:28;;;;;;;5.30;4.43;;;-1.60;97.30;;;;;;5015054;28;20455;-86
2023/02/08 10:41:54;;;;;;;3.87;3.67;;;-1.60;97.30;;;;;;5015206;28;20823;-86
2023/02/08 10:44:55;;;;;;;11.23;2.90;;;-1.50;97.30;;;;;;5015830;28;20427;-86
2023/02/08 10:47:43;;;;;;;7.50;4.77;;;-1.40;97.30;;;;;;5011759;28;20195;-86
2023/02/08 10:50:21;;;;;;;3.97;3.77;;;-1.40;97.30;;;;;;5027497;28;21023;-86
2023/02/08 10:52:47;;;;;;;10.43;5.23;;;-1.30;97.30;;;;;;5013672;28;20545;-87
2023/02/08 10:55:16;;;;;;;8.43;6.93;;;-1.30;97.30;;;;;;5026584;28;20841;-87
2023/02/08 10:57:42;;;;;;;14.60;7.73;;;-1.20;97.30;;;;;;5014709;28;20506;-87
2023/02/08 11:00:20;;;;;;;4.80;4.50;;;-1.10;97.30;;;;;;5010939;28;20481;-87
2023/02/08 11:02:46;;;;;;;4.90;4.30;;;-1.00;97.30;;;;;;5011276;28;20470;-87
2023/02/08 11:05:30;;;;;;;10.00;5.90;;;-0.90;97.30;;;;;;5004000;28;20513;-87
2023/02/08 11:08:06;;;;;;;9.07;5.23;;;-0.70;97.30;;;;;;5010887;28;20446;-86
2023/02/08 11:10:32;;;;;;;4.37;4.10;;;-0.70;97.30;;;;;;5024260;28;20429;-87
2023/02/08 11:13:19;;;;;;;4.47;4.17;;;-0.60;97.30;;;;;;5007246;28;20475;-87
2023/02/08 11:15:51;;;;;;;7.83;4.97;;;-0.60;97.30;;;;;;5006012;28;20443;-86
2023/02/08 11:18:21;;;;;;;16.37;7.80;;;-0.50;97.30;;;;;;5012935;28;20419;-87
2023/02/08 11:20:50;;;;;;;7.57;3.73;;;-0.50;97.30;;;;;;5008612;28;20427;-87
2023/02/08 11:23:22;;;;;;;13.93;4.60;;;-0.50;97.30;;;;;;5011103;28;20428;-88
2023/02/08 11:25:48;;;;;;;3.50;3.27;;;-0.40;97.30;;;;;;5031365;28;20957;-88
2023/02/08 11:28:30;;;;;;;4.63;4.37;;;-0.40;97.30;;;;;;5013599;28;20454;-87
2023/02/08 11:31:01;;;;;;;10.13;8.20;;;-0.30;97.30;;;;;;5020333;28;20655;-86
2023/02/08 11:33:28;;;;;;;11.27;6.00;;;-0.20;97.30;;;;;;5012734;28;20463;-87
2023/02/08 11:36:04;;;;;;;6.83;4.23;;;-0.10;97.30;;;;;;5013066;28;20447;-87
2023/02/08 11:38:32;;;;;;;10.70;4.60;;;0.10;97.30;;;;;;5013693;28;20469;-87
2023/02/08 11:41:01;;;;;;;10.43;6.23;;;0.20;97.30;;;;;;5012998;28;21109;-87
2023/02/08 11:43:30;;;;;;;12.63;5.43;;;0.30;97.30;;;;;;5013382;28;20422;-88
2023/02/08 11:45:57;;;;;;;9.03;4.50;;;0.50;97.30;;;;;;5031101;28;20976;-87
2023/02/08 11:48:28;;;;;;;6.93;5.53;;;0.60;97.30;;;;;;5013549;28;20968;-88
2023/02/08 11:51:02;;;;;;;10.37;4.37;;;0.80;97.30;;;;;;5013415;28;20473;-87
2023/02/08 11:53:35;;;;;;;9.77;4.70;;;0.90;97.30;;;;;;5009094;28;21007;-87
2023/02/08 11:56:20;;;;;;;12.33;7.13;;;1.10;97.30;;;;;;5012779;28;20456;-87
2023/02/08 11:58:58;;;;;;;8.30;5.37;;;1.20;97.30;;;;;;4996838;28;20519;-87
2023/02/08 12:01:36;;;;;;;3.53;3.33;;;1.40;97.30;;;;;;5006925;28;20420;-87
2023/02/08 12:04:06;;;;;;;6.27;4.13;;;1.50;97.30;;;;;;4996059;28;20430;-87
2023/02/08 12:06:44;;;;;;;4.43;4.00;;;1.70;97.30;;;;;;4996020;28;20505;-87
2023/02/08 12:09:42;;;;;;;6.77;4.70;;;1.80;97.30;;;;;;5011535;28;20435;-87
2023/02/08 12:12:32;;;;;;;12.13;6.87;;;1.90;97.30;;;;;;5010777;28;20515;-87
2023/02/08 12:15:16;;;;;;;17.13;4.63;;;2.00;97.30;;;;;;4993567;28;20452;-87
2023/02/08 12:17:59;;;;;;;20.77;7.13;;;2.20;97.30;;;;;;4993531;28;20420;-87
2023/02/08 12:20:34;;;;;;;14.40;4.87;;;2.30;97.30;;;;;;5010890;28;20412;-87
2023/02/08 12:23:10;;;;;;;18.53;5.30;;;2.40;97.30;;;;;;4993297;28;20427;-87
2023/02/08 12:25:55;;;;;;;10.57;7.87;;;2.50;97.10;;;;;;5010873;28;20444;-87
2023/02/08 12:28:55;;;;;;;8.13;6.30;;;2.70;96.70;;;;;;4993407;28;20794;-87
2023/02/08 12:31:40;;;;;;;4.80;4.50;;;2.80;96.50;;;;;;4993114;28;20439;-87
2023/02/08 12:34:18;;;;;;;11.70;4.50;;;2.90;95.60;;;;;;4992352;28;20580;-87
2023/02/08 12:40:48;;;;;;;3.43;3.23;;;3.00;95.10;;;;;;4987570;28;20447;-87
2023/02/08 12:42:50;;;;;;;8.23;6.00;;;3.20;93.60;;;;;;5009637;28;20427;-87
2023/02/08 12:45:46;;;;;;;2.27;2.07;;;3.40;93.20;;;;;;4992956;28;20435;-87
2023/02/08 12:48:30;;;;;;;5.67;5.37;;;3.50;93.90;;;;;;4993141;28;20482;-88
2023/02/08 12:51:07;;;;;;;11.80;6.37;;;3.70;94.40;;;;;;5009116;28;20469;-87
2023/02/08 12:53:39;;;;;;;12.27;5.10;;;3.90;94.00;;;;;;4992272;28;20467;-85
2023/02/08 12:56:11;;;;;;;18.90;7.17;;;4.00;93.60;;;;;;5002760;28;20447;-85
2023/02/08 12:58:52;;;;;;;8.80;5.00;;;4.00;93.80;;;;;;4992884;28;20476;-85
2023/02/08 13:01:36;;;;;;;6.40;5.90;;;4.20;94.50;;;;;;5008446;28;20422;-85
2023/02/08 13:04:19;;;;;;;7.93;6.30;;;4.40;94.20;;;;;;4992464;28;20428;-84
2023/02/08 13:06:54;;;;;;;5.53;4.73;;;4.60;93.60;;;;;;4992357;28;20486;-85